createdAt,value
2023-05-02T00:00:20.806Z,93.37
2023-05-02T00:01:15.831Z,93.52
2023-05-02T00:02:10.906Z,93.53
2023-05-02T00:03:07.657Z,93.53
2023-05-02T00:04:02.694Z,93.56
2023-05-02T00:04:57.933Z,93.54
2023-05-02T00:05:52.972Z,93.44
2023-05-02T00:06:48.490Z,93.50
2023-05-02T00:07:43.670Z,93.65
2023-05-02T00:08:38.838Z,93.64
2023-05-02T00:09:34.011Z,93.62
2023-05-02T00:10:29.361Z,93.59
2023-05-02T00:11:24.283Z,93.46
2023-05-02T00:12:19.409Z,93.38
2023-05-02T00:13:14.624Z,93.38
2023-05-02T00:14:09.750Z,93.37
2023-05-02T00:15:05.111Z,93.34
2023-05-02T00:16:00.020Z,93.39
2023-05-02T00:16:55.117Z,93.38
2023-05-02T00:17:50.041Z,93.38
2023-05-02T00:18:47.955Z,93.40
2023-05-02T00:19:43.108Z,93.41
2023-05-02T00:20:38.266Z,93.42
2023-05-02T00:21:33.437Z,93.43
2023-05-02T00:22:28.657Z,93.46
2023-05-02T00:23:24.500Z,93.48
2023-05-02T00:24:19.682Z,93.47
2023-05-02T00:25:15.002Z,93.50
2023-05-02T00:26:10.647Z,93.53
2023-05-02T00:27:05.814Z,93.55
2023-05-02T00:28:01.842Z,93.58
2023-05-02T00:28:56.885Z,93.60
2023-05-02T00:29:52.241Z,93.58
2023-05-02T00:30:48.037Z,93.65
2023-05-02T00:31:43.308Z,93.66
2023-05-02T00:32:38.582Z,93.66
2023-05-02T00:33:34.855Z,93.68
2023-05-02T00:34:30.068Z,93.71
2023-05-02T00:35:25.844Z,93.76
2023-05-02T00:36:20.993Z,93.78
2023-05-02T00:37:16.339Z,93.79
2023-05-02T00:38:11.950Z,93.84
2023-05-02T00:39:07.232Z,93.83
2023-05-02T00:40:03.090Z,93.86
2023-05-02T00:40:58.181Z,93.94
2023-05-02T00:41:53.482Z,93.97
2023-05-02T00:42:49.278Z,94.02
2023-05-02T00:43:44.444Z,94.06
2023-05-02T00:44:39.824Z,93.96
2023-05-02T00:45:35.792Z,94.03
2023-05-02T00:46:31.054Z,94.00
2023-05-02T00:47:26.905Z,93.99
2023-05-02T00:48:22.072Z,93.94
2023-05-02T00:49:17.154Z,93.89
2023-05-02T00:50:13.222Z,94.01
2023-05-02T00:51:08.140Z,94.14
2023-05-02T00:52:04.032Z,94.18
2023-05-02T00:52:59.181Z,94.08
2023-05-02T00:53:54.398Z,93.97
2023-05-02T00:54:50.139Z,93.82
2023-05-02T00:55:45.377Z,93.74
2023-05-02T00:56:40.512Z,93.66
2023-05-02T00:57:36.832Z,93.66
2023-05-02T00:58:31.982Z,93.65
2023-05-02T00:59:27.893Z,93.58
2023-05-02T01:00:22.928Z,93.57
2023-05-02T01:01:18.153Z,93.55
2023-05-02T01:02:13.917Z,93.63
2023-05-02T01:03:09.119Z,93.71
2023-05-02T01:04:05.139Z,93.75
2023-05-02T01:05:00.238Z,93.69
2023-05-02T01:05:55.280Z,93.75
2023-05-02T01:06:51.385Z,93.80
2023-05-02T01:07:46.459Z,93.68
2023-05-02T01:08:41.824Z,93.63
2023-05-02T01:09:38.007Z,93.40
2023-05-02T01:10:33.100Z,93.44
2023-05-02T01:11:28.835Z,93.48
2023-05-02T01:12:23.998Z,93.47
2023-05-02T01:13:19.284Z,93.55
2023-05-02T01:14:15.245Z,93.60
2023-05-02T01:15:10.296Z,93.55
2023-05-02T01:16:06.278Z,93.51
2023-05-02T01:17:01.282Z,93.56
2023-05-02T01:17:56.827Z,93.51
2023-05-02T01:18:52.313Z,93.41
2023-05-02T01:19:47.549Z,93.40
2023-05-02T01:20:42.580Z,93.48
2023-05-02T01:21:39.027Z,93.45
2023-05-02T01:22:34.226Z,93.50
2023-05-02T01:23:29.402Z,93.49
2023-05-02T01:24:24.435Z,93.56
2023-05-02T01:25:19.694Z,93.37
2023-05-02T01:26:14.666Z,93.35
2023-05-02T01:27:09.764Z,93.38
2023-05-02T01:28:04.872Z,93.34
2023-05-02T01:28:59.961Z,93.36
2023-05-02T01:29:55.015Z,93.33
2023-05-02T01:30:50.074Z,93.28
2023-05-02T01:31:45.310Z,93.36
2023-05-02T01:32:40.513Z,93.30
2023-05-02T01:33:35.748Z,93.35
2023-05-02T01:34:31.022Z,93.44
2023-05-02T01:35:25.919Z,93.50
2023-05-02T01:36:21.050Z,93.53
2023-05-02T01:37:18.278Z,93.60
2023-05-02T01:38:13.302Z,93.64
2023-05-02T01:39:08.347Z,93.63
2023-05-02T01:40:03.563Z,93.50
2023-05-02T01:40:58.472Z,93.39
2023-05-02T01:41:53.553Z,93.33
2023-05-02T01:42:48.594Z,93.33
2023-05-02T01:43:43.643Z,93.39
2023-05-02T01:44:38.719Z,93.50
2023-05-02T01:45:33.757Z,93.56
2023-05-02T01:46:28.806Z,93.50
2023-05-02T01:47:23.892Z,93.42
2023-05-02T01:48:18.894Z,93.25
2023-05-02T01:49:14.096Z,93.13
2023-05-02T01:50:09.141Z,93.15
2023-05-02T01:51:04.173Z,93.19
2023-05-02T01:51:59.241Z,93.25
2023-05-02T01:52:54.325Z,93.31
2023-05-02T01:53:49.575Z,93.25
2023-05-02T01:54:50.174Z,93.15
2023-05-02T01:55:45.204Z,93.06
2023-05-02T01:56:40.504Z,92.99
2023-05-02T01:57:36.405Z,93.04
2023-05-02T01:58:31.613Z,93.07
2023-05-02T01:59:26.945Z,93.13
2023-05-02T02:00:22.955Z,93.18
2023-05-02T02:01:18.211Z,93.18
2023-05-02T02:02:13.956Z,93.13
2023-05-02T02:03:09.146Z,92.89
2023-05-02T02:04:04.478Z,92.89
2023-05-02T02:05:00.124Z,92.94
2023-05-02T02:05:55.280Z,93.01
2023-05-02T02:06:51.288Z,93.03
2023-05-02T02:07:46.391Z,93.04
2023-05-02T02:08:41.738Z,92.99
2023-05-02T02:09:37.390Z,92.95
2023-05-02T02:10:32.585Z,92.81
2023-05-02T02:11:27.758Z,92.81
2023-05-02T02:12:24.177Z,92.64
2023-05-02T02:13:19.372Z,92.53
2023-05-02T02:14:15.437Z,92.56
2023-05-02T02:15:10.495Z,92.51
2023-05-02T02:16:05.839Z,92.55
2023-05-02T02:17:01.673Z,92.68
2023-05-02T02:17:56.819Z,92.50
2023-05-02T02:18:52.528Z,92.53
2023-05-02T02:19:47.870Z,92.51
2023-05-02T02:20:42.918Z,92.45
2023-05-02T02:21:38.805Z,92.36
2023-05-02T02:22:33.991Z,92.34
2023-05-02T02:23:29.297Z,92.37
2023-05-02T02:24:25.609Z,92.30
2023-05-02T02:25:20.796Z,92.21
2023-05-02T02:26:16.518Z,92.26
2023-05-02T02:27:11.708Z,92.29
2023-05-02T02:28:06.901Z,92.29
2023-05-02T02:29:02.821Z,92.37
2023-05-02T02:29:58.218Z,92.44
2023-05-02T02:30:53.948Z,92.56
2023-05-02T02:31:48.963Z,92.65
2023-05-02T02:32:44.383Z,92.72
2023-05-02T02:33:40.121Z,92.81
2023-05-02T02:34:35.334Z,92.93
2023-05-02T02:35:30.622Z,93.00
2023-05-02T02:36:26.918Z,93.04
2023-05-02T02:37:22.103Z,93.06
2023-05-02T02:38:18.030Z,92.94
2023-05-02T02:39:13.165Z,92.98
2023-05-02T02:40:08.514Z,92.90
2023-05-02T02:41:04.120Z,92.93
2023-05-02T02:41:59.340Z,93.00
2023-05-02T02:42:55.077Z,92.99
2023-05-02T02:43:50.409Z,92.92
2023-05-02T02:44:45.580Z,93.01
2023-05-02T02:45:41.341Z,93.00
2023-05-02T02:46:36.549Z,93.01
2023-05-02T02:47:31.776Z,92.95
2023-05-02T02:48:27.862Z,92.85
2023-05-02T02:49:23.156Z,92.64
2023-05-02T02:50:18.870Z,92.60
2023-05-02T02:51:14.028Z,92.61
2023-05-02T02:52:09.213Z,92.61
2023-05-02T02:53:04.389Z,92.55
2023-05-02T02:53:59.861Z,92.52
2023-05-02T02:54:55.501Z,92.52
2023-05-02T02:55:50.569Z,92.60
2023-05-02T02:56:45.733Z,92.60
2023-05-02T02:57:41.878Z,92.62
2023-05-02T02:58:37.095Z,92.62
2023-05-02T02:59:32.842Z,92.60
2023-05-02T03:00:28.014Z,92.72
2023-05-02T03:01:23.087Z,92.76
2023-05-02T03:02:18.956Z,92.77
2023-05-02T03:03:14.314Z,92.80
2023-05-02T03:04:09.963Z,92.84
2023-05-02T03:05:05.127Z,92.90
2023-05-02T03:06:00.407Z,92.94
2023-05-02T03:06:56.199Z,92.92
2023-05-02T03:07:51.367Z,92.90
2023-05-02T03:08:46.560Z,93.01
2023-05-02T03:09:41.650Z,93.09
2023-05-02T03:10:36.819Z,93.10
2023-05-02T03:11:31.883Z,93.20
2023-05-02T03:12:26.851Z,93.22
2023-05-02T03:13:25.590Z,93.29
2023-05-02T03:14:20.691Z,93.35
2023-05-02T03:15:16.333Z,93.41
2023-05-02T03:16:11.369Z,93.44
2023-05-02T03:17:06.437Z,93.44
2023-05-02T03:18:01.536Z,93.47
2023-05-02T03:18:56.602Z,93.41
2023-05-02T03:19:51.646Z,93.38
2023-05-02T03:20:46.897Z,93.55
2023-05-02T03:21:41.820Z,93.46
2023-05-02T03:22:36.869Z,93.41
2023-05-02T03:23:31.880Z,93.36
2023-05-02T03:24:27.119Z,93.27
2023-05-02T03:25:22.163Z,93.20
2023-05-02T03:26:17.244Z,93.22
2023-05-02T03:27:12.311Z,93.23
2023-05-02T03:28:07.334Z,93.28
2023-05-02T03:29:02.364Z,93.31
2023-05-02T03:29:57.534Z,93.32
2023-05-02T03:30:52.681Z,93.37
2023-05-02T03:31:48.047Z,93.37
2023-05-02T03:32:43.093Z,93.43
2023-05-02T03:33:38.271Z,93.53
2023-05-02T03:34:33.342Z,93.58
2023-05-02T03:35:28.683Z,93.57
2023-05-02T03:36:23.698Z,93.49
2023-05-02T03:37:18.901Z,93.53
2023-05-02T03:38:14.031Z,93.53
2023-05-02T03:39:09.212Z,93.57
2023-05-02T03:40:04.419Z,93.61
2023-05-02T03:40:59.542Z,93.70
2023-05-02T03:41:54.495Z,93.66
2023-05-02T03:42:49.603Z,93.63
2023-05-02T03:43:44.551Z,93.66
2023-05-02T03:44:39.711Z,93.67
2023-05-02T03:45:34.642Z,93.65
2023-05-02T03:46:29.772Z,93.67
2023-05-02T03:47:24.787Z,93.71
2023-05-02T03:48:19.809Z,93.72
2023-05-02T03:49:14.797Z,93.72
2023-05-02T03:50:09.900Z,93.74
2023-05-02T03:51:04.940Z,93.77
2023-05-02T03:51:59.958Z,93.77
2023-05-02T03:52:55.051Z,93.81
2023-05-02T03:53:50.125Z,93.82
2023-05-02T03:54:45.173Z,93.81
2023-05-02T03:55:40.492Z,93.81
2023-05-02T03:56:35.475Z,93.80
2023-05-02T03:57:30.510Z,93.79
2023-05-02T03:58:25.521Z,93.75
2023-05-02T03:59:20.584Z,93.76
2023-05-02T04:00:15.626Z,93.79
2023-05-02T04:01:10.796Z,93.80
2023-05-02T04:02:06.010Z,93.82
2023-05-02T04:03:01.774Z,93.90
2023-05-02T04:03:57.041Z,93.92
2023-05-02T04:04:52.730Z,93.91
2023-05-02T04:05:48.091Z,93.91
2023-05-02T04:06:43.403Z,93.98
2023-05-02T04:07:39.017Z,94.04
2023-05-02T04:08:34.379Z,94.00
2023-05-02T04:09:29.715Z,94.00
2023-05-02T04:10:25.924Z,93.99
2023-05-02T04:11:21.419Z,93.97
2023-05-02T04:12:17.060Z,93.93
2023-05-02T04:13:12.267Z,93.91
2023-05-02T04:14:07.553Z,93.91
2023-05-02T04:15:03.334Z,93.93
2023-05-02T04:15:58.696Z,93.93
2023-05-02T04:16:54.808Z,93.92
2023-05-02T04:17:49.758Z,93.94
2023-05-02T04:18:45.094Z,93.92
2023-05-02T04:19:40.923Z,93.96
2023-05-02T04:20:36.243Z,93.93
2023-05-02T04:21:31.769Z,93.93
2023-05-02T04:22:27.788Z,93.94
2023-05-02T04:23:23.171Z,93.92
2023-05-02T04:24:18.935Z,93.88
2023-05-02T04:25:14.278Z,93.95
2023-05-02T04:26:09.911Z,93.94
2023-05-02T04:27:05.489Z,93.86
2023-05-02T04:28:00.652Z,93.76
2023-05-02T04:28:56.579Z,93.74
2023-05-02T04:29:51.951Z,93.74
2023-05-02T04:30:47.532Z,93.74
2023-05-02T04:31:43.196Z,93.74
2023-05-02T04:32:38.531Z,93.74
2023-05-02T04:33:33.735Z,93.80
2023-05-02T04:34:30.112Z,93.84
2023-05-02T04:35:25.529Z,93.85
2023-05-02T04:36:21.515Z,93.85
2023-05-02T04:37:16.606Z,93.80
2023-05-02T04:38:11.915Z,93.74
2023-05-02T04:39:07.574Z,93.77
2023-05-02T04:40:02.975Z,93.83
2023-05-02T04:40:58.583Z,93.80
2023-05-02T04:41:53.963Z,93.68
2023-05-02T04:42:49.243Z,93.57
2023-05-02T04:43:45.064Z,93.59
2023-05-02T04:44:40.473Z,93.58
2023-05-02T04:45:35.725Z,93.47
2023-05-02T04:46:32.124Z,93.39
2023-05-02T04:47:27.412Z,93.37
2023-05-02T04:48:22.714Z,93.28
2023-05-02T04:49:17.809Z,93.40
2023-05-02T04:50:12.843Z,93.33
2023-05-02T04:51:08.062Z,93.30
2023-05-02T04:52:03.123Z,93.25
2023-05-02T04:52:58.231Z,93.18
2023-05-02T04:53:53.296Z,93.18
2023-05-02T04:54:48.360Z,93.22
2023-05-02T04:55:43.385Z,93.24
2023-05-02T04:56:38.636Z,93.20
2023-05-02T04:57:33.568Z,93.16
2023-05-02T04:58:28.507Z,93.11
2023-05-02T04:59:23.587Z,93.09
2023-05-02T05:00:18.683Z,93.03
2023-05-02T05:01:13.912Z,93.02
2023-05-02T05:02:13.076Z,92.98
2023-05-02T05:03:07.976Z,93.08
2023-05-02T05:04:03.187Z,93.13
2023-05-02T05:04:58.150Z,93.16
2023-05-02T05:05:53.341Z,93.15
2023-05-02T05:06:48.434Z,93.14
2023-05-02T05:07:43.329Z,93.14
2023-05-02T05:08:38.402Z,93.14
2023-05-02T05:09:33.500Z,93.08
2023-05-02T05:10:28.516Z,93.08
2023-05-02T05:11:23.945Z,93.04
2023-05-02T05:12:19.102Z,93.08
2023-05-02T05:13:14.603Z,93.07
2023-05-02T05:14:09.966Z,92.92
2023-05-02T05:15:05.006Z,92.94
2023-05-02T05:16:00.307Z,92.79
2023-05-02T05:16:55.260Z,92.81
2023-05-02T05:17:50.350Z,92.68
2023-05-02T05:18:45.329Z,92.60
2023-05-02T05:19:44.519Z,92.52
2023-05-02T05:20:39.608Z,92.36
2023-05-02T05:21:34.801Z,92.28
2023-05-02T05:22:29.773Z,92.27
2023-05-02T05:23:24.797Z,92.19
2023-05-02T05:24:19.903Z,92.08
2023-05-02T05:25:14.945Z,92.05
2023-05-02T05:26:10.183Z,92.07
2023-05-02T05:27:05.088Z,92.08
2023-05-02T05:28:00.172Z,92.12
2023-05-02T05:28:55.243Z,92.19
2023-05-02T05:29:50.366Z,92.20
2023-05-02T05:30:45.393Z,92.15
2023-05-02T05:31:40.722Z,92.05
2023-05-02T05:32:39.048Z,91.96
2023-05-02T05:33:34.232Z,91.95
2023-05-02T05:34:29.186Z,91.88
2023-05-02T05:35:24.398Z,91.72
2023-05-02T05:36:20.416Z,91.57
2023-05-02T05:37:14.718Z,91.41
2023-05-02T05:38:09.602Z,91.28
2023-05-02T05:39:04.664Z,91.14
2023-05-02T05:39:59.967Z,91.03
2023-05-02T05:40:54.826Z,90.88
2023-05-02T05:41:50.218Z,90.81
2023-05-02T05:42:45.169Z,90.82
2023-05-02T05:43:40.215Z,90.78
2023-05-02T05:44:35.302Z,90.78
2023-05-02T05:45:30.332Z,90.69
2023-05-02T05:46:25.785Z,90.79
2023-05-02T05:47:20.750Z,90.72
2023-05-02T05:48:16.129Z,90.69
2023-05-02T05:49:11.482Z,90.73
2023-05-02T05:50:07.056Z,90.81
2023-05-02T05:51:02.387Z,90.72
2023-05-02T05:51:58.056Z,90.80
2023-05-02T05:52:53.412Z,90.92
2023-05-02T05:53:48.728Z,90.89
2023-05-02T05:54:44.085Z,90.86
2023-05-02T05:55:41.557Z,90.87
2023-05-02T05:56:35.134Z,90.82
2023-05-02T05:57:30.353Z,90.75
2023-05-02T05:58:25.845Z,90.72
2023-05-02T05:59:20.865Z,90.91
2023-05-02T06:00:15.966Z,90.72
2023-05-02T06:01:11.194Z,90.62
2023-05-02T06:02:06.167Z,90.51
2023-05-02T06:03:01.360Z,90.50
2023-05-02T06:03:56.240Z,90.50
2023-05-02T06:04:51.358Z,90.52
2023-05-02T06:05:46.459Z,90.47
2023-05-02T06:06:41.433Z,90.47
2023-05-02T06:07:36.440Z,90.44
2023-05-02T06:08:31.511Z,90.45
2023-05-02T06:09:26.584Z,90.27
2023-05-02T06:10:21.626Z,90.10
2023-05-02T06:11:16.725Z,90.04
2023-05-02T06:12:11.667Z,90.00
2023-05-02T06:13:06.706Z,90.00
2023-05-02T06:14:01.797Z,90.06
2023-05-02T06:14:56.884Z,90.20
2023-05-02T06:15:51.971Z,90.18
2023-05-02T06:16:47.475Z,90.09
2023-05-02T06:17:42.415Z,90.09
2023-05-02T06:18:37.511Z,90.06
2023-05-02T06:19:32.550Z,89.98
2023-05-02T06:20:27.628Z,89.90
2023-05-02T06:21:22.822Z,89.76
2023-05-02T06:22:17.737Z,89.68
2023-05-02T06:23:12.807Z,89.63
2023-05-02T06:24:07.924Z,89.46
2023-05-02T06:25:02.938Z,89.27
2023-05-02T06:25:58.043Z,89.28
2023-05-02T06:26:53.141Z,89.18
2023-05-02T06:27:48.250Z,89.13
2023-05-02T06:28:43.291Z,89.02
2023-05-02T06:29:38.350Z,88.79
2023-05-02T06:30:33.396Z,88.60
2023-05-02T06:31:28.688Z,88.49
2023-05-02T06:32:23.702Z,88.37
2023-05-02T06:33:19.077Z,88.30
2023-05-02T06:34:14.382Z,88.20
2023-05-02T06:35:09.457Z,87.92
2023-05-02T06:36:04.532Z,87.53
2023-05-02T06:36:59.890Z,87.34
2023-05-02T06:37:58.079Z,87.40
2023-05-02T06:38:53.230Z,87.13
2023-05-02T06:39:48.224Z,86.85
2023-05-02T06:40:43.273Z,86.45
2023-05-02T06:41:38.459Z,86.07
2023-05-02T06:42:33.350Z,86.14
2023-05-02T06:43:28.419Z,86.43
2023-05-02T06:44:23.464Z,86.68
2023-05-02T06:45:18.615Z,86.80
2023-05-02T06:46:13.905Z,86.36
2023-05-02T06:47:08.707Z,85.91
2023-05-02T06:48:03.760Z,86.04
2023-05-02T06:48:58.751Z,86.05
2023-05-02T06:49:54.516Z,86.20
2023-05-02T06:50:49.850Z,86.23
2023-05-02T06:51:45.312Z,86.37
2023-05-02T06:52:40.563Z,86.47
2023-05-02T06:53:36.104Z,86.44
2023-05-02T06:54:31.580Z,86.03
2023-05-02T06:55:27.018Z,85.24
2023-05-02T06:56:22.593Z,84.78
2023-05-02T06:57:17.916Z,84.62
2023-05-02T06:58:13.362Z,84.24
2023-05-02T06:59:09.058Z,83.90
2023-05-02T07:00:04.459Z,83.63
2023-05-02T07:01:03.820Z,83.58
2023-05-02T07:01:59.121Z,83.45
2023-05-02T07:02:54.546Z,83.36
2023-05-02T07:03:49.928Z,83.25
2023-05-02T07:04:45.494Z,83.03
2023-05-02T07:05:40.875Z,82.34
2023-05-02T07:06:36.332Z,82.32
2023-05-02T07:07:31.902Z,82.24
2023-05-02T07:08:27.145Z,82.58
2023-05-02T07:09:22.579Z,82.81
2023-05-02T07:10:18.038Z,83.27
2023-05-02T07:11:13.399Z,83.47
2023-05-02T07:12:08.974Z,83.64
2023-05-02T07:13:04.147Z,83.73
2023-05-02T07:13:59.810Z,83.81
2023-05-02T07:14:54.897Z,84.09
2023-05-02T07:15:50.005Z,84.33
2023-05-02T07:16:45.111Z,84.64
2023-05-02T07:17:40.278Z,84.75
2023-05-02T07:18:35.189Z,84.54
2023-05-02T07:19:30.271Z,84.53
2023-05-02T07:20:25.362Z,84.72
2023-05-02T07:21:20.455Z,84.91
2023-05-02T07:22:15.685Z,84.95
2023-05-02T07:23:10.523Z,85.09
2023-05-02T07:24:07.790Z,85.24
2023-05-02T07:25:03.042Z,85.40
2023-05-02T07:25:58.021Z,85.44
2023-05-02T07:26:53.315Z,85.54
2023-05-02T07:27:48.149Z,85.41
2023-05-02T07:28:43.319Z,85.12
2023-05-02T07:29:38.376Z,85.14
2023-05-02T07:30:33.487Z,85.18
2023-05-02T07:31:28.567Z,85.21
2023-05-02T07:32:23.885Z,85.24
2023-05-02T07:33:19.569Z,85.21
2023-05-02T07:34:15.037Z,85.37
2023-05-02T07:35:10.756Z,85.63
2023-05-02T07:36:06.246Z,85.75
2023-05-02T07:37:01.778Z,85.70
2023-05-02T07:37:57.362Z,85.80
2023-05-02T07:38:52.677Z,85.99
2023-05-02T07:39:48.444Z,86.17
2023-05-02T07:40:43.748Z,86.22
2023-05-02T07:41:39.461Z,86.19
2023-05-02T07:42:34.775Z,86.27
2023-05-02T07:43:30.149Z,86.11
2023-05-02T07:44:25.470Z,86.08
2023-05-02T07:45:21.775Z,86.13
2023-05-02T07:46:17.290Z,86.18
2023-05-02T07:47:13.189Z,86.13
2023-05-02T07:48:08.445Z,86.30
2023-05-02T07:49:03.889Z,86.27
2023-05-02T07:51:25.186Z,86.71
2023-05-02T07:52:18.912Z,86.47
2023-05-02T07:53:14.985Z,86.19
2023-05-02T07:54:09.723Z,85.68
2023-05-02T07:55:05.267Z,85.33
2023-05-02T07:56:00.757Z,85.15
2023-05-02T07:56:56.478Z,84.29
2023-05-02T07:57:51.672Z,83.95
2023-05-02T07:58:47.213Z,83.27
2023-05-02T07:59:42.579Z,83.21
2023-05-02T08:00:38.203Z,83.20
2023-05-02T08:01:33.620Z,83.12
2023-05-02T08:02:29.086Z,83.04
2023-05-02T08:03:24.743Z,82.77
2023-05-02T08:04:20.210Z,82.45
2023-05-02T08:05:15.610Z,82.43
2023-05-02T08:06:11.157Z,82.73
2023-05-02T08:07:06.676Z,82.83
2023-05-02T08:08:01.971Z,82.84
2023-05-02T08:08:57.359Z,82.67
2023-05-02T08:09:52.876Z,82.01
2023-05-02T08:10:48.399Z,81.82
2023-05-02T08:11:44.078Z,81.74
2023-05-02T08:12:39.323Z,81.71
2023-05-02T08:13:34.741Z,81.67
2023-05-02T08:14:30.113Z,81.84
2023-05-02T08:15:25.642Z,81.74
2023-05-02T08:16:21.179Z,81.76
2023-05-02T08:17:16.445Z,81.88
2023-05-02T08:18:12.175Z,81.89
2023-05-02T08:19:07.564Z,81.89
2023-05-02T08:20:03.098Z,81.81
2023-05-02T08:20:58.644Z,81.35
2023-05-02T08:21:53.872Z,81.10
2023-05-02T08:22:49.413Z,80.85
2023-05-02T08:23:44.797Z,80.68
2023-05-02T08:24:40.487Z,80.59
2023-05-02T08:25:35.933Z,80.65
2023-05-02T08:26:31.545Z,80.79
2023-05-02T08:27:26.763Z,80.62
2023-05-02T08:28:22.305Z,80.66
2023-05-02T08:29:17.672Z,80.87
2023-05-02T08:30:13.327Z,81.05
2023-05-02T08:31:08.776Z,80.33
2023-05-02T08:32:04.218Z,80.13
2023-05-02T08:32:59.754Z,80.12
2023-05-02T08:33:55.151Z,79.71
2023-05-02T08:34:50.536Z,79.24
2023-05-02T08:35:46.285Z,78.94
2023-05-02T08:36:41.699Z,78.57
2023-05-02T08:37:36.973Z,78.34
2023-05-02T08:38:32.400Z,78.15
2023-05-02T08:39:28.038Z,78.39
2023-05-02T08:40:34.001Z,78.58
2023-05-02T08:41:20.106Z,78.67
2023-05-02T08:42:14.398Z,78.46
2023-05-02T08:43:09.916Z,78.30
2023-05-02T08:44:05.250Z,78.14
2023-05-02T08:45:00.653Z,78.31
2023-05-02T08:45:56.156Z,78.47
2023-05-02T08:46:51.547Z,78.82
2023-05-02T08:47:47.095Z,78.65
2023-05-02T08:48:42.469Z,78.26
2023-05-02T08:49:37.810Z,78.33
2023-05-02T08:50:33.243Z,77.91
2023-05-02T08:51:28.814Z,77.51
2023-05-02T08:52:24.241Z,77.58
2023-05-02T08:53:19.621Z,77.27
2023-05-02T08:54:15.053Z,77.35
2023-05-02T08:55:10.548Z,77.41
2023-05-02T08:56:06.149Z,77.30
2023-05-02T08:57:01.361Z,77.18
2023-05-02T08:57:56.767Z,77.27
2023-05-02T08:58:52.161Z,77.13
2023-05-02T08:59:47.549Z,77.09
2023-05-02T09:00:43.153Z,77.66
2023-05-02T09:01:38.713Z,77.25
2023-05-02T09:02:34.068Z,77.05
2023-05-02T09:03:29.497Z,77.09
2023-05-02T09:04:25.064Z,77.54
2023-05-02T09:05:20.390Z,77.83
2023-05-02T09:06:15.967Z,77.86
2023-05-02T09:07:11.446Z,77.45
2023-05-02T09:08:06.996Z,76.99
2023-05-02T09:09:02.232Z,76.35
2023-05-02T09:09:57.843Z,76.61
2023-05-02T09:10:53.369Z,76.35
2023-05-02T09:11:48.905Z,76.17
2023-05-02T09:12:44.162Z,76.22
2023-05-02T09:13:39.539Z,76.08
2023-05-02T09:14:34.926Z,75.79
2023-05-02T09:15:30.493Z,75.36
2023-05-02T09:16:26.256Z,75.11
2023-05-02T09:17:21.549Z,75.11
2023-05-02T09:18:16.901Z,75.52
2023-05-02T09:19:12.562Z,75.42
2023-05-02T09:20:07.945Z,75.27
2023-05-02T09:21:03.603Z,75.06
2023-05-02T09:21:58.951Z,74.71
2023-05-02T09:22:54.420Z,74.78
2023-05-02T09:23:49.836Z,74.74
2023-05-02T09:24:45.564Z,74.45
2023-05-02T09:25:40.991Z,74.21
2023-05-02T09:26:36.621Z,74.77
2023-05-02T09:27:32.016Z,73.98
2023-05-02T09:28:27.540Z,73.46
2023-05-02T09:29:22.944Z,74.00
2023-05-02T09:30:18.383Z,73.54
2023-05-02T09:31:15.215Z,73.81
2023-05-02T09:32:09.317Z,74.00
2023-05-02T09:33:04.630Z,73.44
2023-05-02T09:34:00.247Z,73.53
2023-05-02T09:34:55.624Z,73.68
2023-05-02T09:35:51.105Z,74.01
2023-05-02T09:36:46.732Z,74.11
2023-05-02T09:37:42.033Z,74.41
2023-05-02T09:38:37.613Z,74.11
2023-05-02T09:39:33.192Z,73.98
2023-05-02T09:40:28.567Z,73.23
2023-05-02T09:41:24.226Z,72.96
2023-05-02T09:42:19.473Z,71.85
2023-05-02T09:43:15.208Z,71.62
2023-05-02T09:44:10.669Z,71.21
2023-05-02T09:45:06.094Z,70.27
2023-05-02T09:46:01.691Z,68.77
2023-05-02T09:46:57.205Z,68.42
2023-05-02T09:47:52.744Z,68.25
2023-05-02T09:48:47.978Z,66.96
2023-05-02T09:49:43.423Z,65.70
2023-05-02T09:50:38.883Z,65.91
2023-05-02T09:51:34.507Z,66.41
2023-05-02T09:52:29.957Z,65.86
2023-05-02T09:53:25.377Z,66.17
2023-05-02T09:54:20.833Z,67.18
2023-05-02T09:55:16.217Z,67.41
2023-05-02T09:56:11.831Z,68.08
2023-05-02T09:57:07.660Z,67.30
2023-05-02T09:58:02.818Z,67.42
2023-05-02T09:58:58.201Z,68.56
2023-05-02T09:59:53.634Z,68.26
2023-05-02T10:00:48.994Z,68.37
2023-05-02T10:01:44.693Z,67.47
2023-05-02T10:02:40.129Z,67.57
2023-05-02T10:03:35.678Z,66.71
2023-05-02T10:04:31.374Z,66.69
2023-05-02T10:05:26.699Z,67.18
2023-05-02T10:06:22.160Z,67.69
2023-05-02T10:07:17.733Z,67.86
2023-05-02T10:08:13.024Z,67.88
2023-05-02T10:09:08.622Z,68.14
2023-05-02T10:10:04.079Z,68.57
2023-05-02T10:10:59.657Z,68.28
2023-05-02T10:11:55.206Z,68.32
2023-05-02T10:12:50.642Z,68.31
2023-05-02T10:13:46.003Z,68.57
2023-05-02T10:14:41.812Z,68.04
2023-05-02T10:15:37.127Z,68.69
2023-05-02T10:16:32.728Z,68.78
2023-05-02T10:17:28.369Z,69.14
2023-05-02T10:18:23.619Z,69.66
2023-05-02T10:19:18.965Z,69.44
2023-05-02T10:20:14.348Z,69.52
2023-05-02T10:21:09.749Z,69.31
2023-05-02T10:22:05.132Z,69.52
2023-05-02T10:23:00.487Z,69.40
2023-05-02T10:23:55.886Z,69.52
2023-05-02T10:24:51.246Z,70.01
2023-05-02T10:25:46.888Z,69.40
2023-05-02T10:26:42.348Z,69.05
2023-05-02T10:27:37.651Z,69.10
2023-05-02T10:28:33.091Z,68.73
2023-05-02T10:29:28.647Z,68.40
2023-05-02T10:30:24.163Z,68.07
2023-05-02T10:31:19.790Z,68.29
2023-05-02T10:32:15.028Z,68.54
2023-05-02T10:33:10.648Z,67.98
2023-05-02T10:34:06.100Z,67.96
2023-05-02T10:35:01.926Z,68.81
2023-05-02T10:35:57.121Z,67.03
2023-05-02T10:36:52.761Z,67.00
2023-05-02T10:37:48.157Z,65.96
2023-05-02T10:38:43.716Z,66.13
2023-05-02T10:39:39.241Z,66.15
2023-05-02T10:40:34.773Z,66.77
2023-05-02T10:41:30.370Z,66.97
2023-05-02T10:42:25.696Z,67.74
2023-05-02T10:43:21.104Z,67.38
2023-05-02T10:44:16.570Z,67.29
2023-05-02T10:45:12.030Z,66.29
2023-05-02T10:46:07.470Z,65.44
2023-05-02T10:47:03.304Z,65.06
2023-05-02T10:47:58.404Z,64.86
2023-05-02T10:48:53.833Z,64.36
2023-05-02T10:49:49.312Z,63.54
2023-05-02T10:50:44.699Z,62.22
2023-05-02T10:51:40.586Z,60.92
2023-05-02T10:52:35.928Z,60.93
2023-05-02T10:53:31.344Z,60.44
2023-05-02T10:54:26.769Z,61.66
2023-05-02T10:55:22.216Z,61.77
2023-05-02T10:56:17.636Z,61.57
2023-05-02T10:57:13.274Z,61.26
2023-05-02T10:58:08.683Z,61.35
2023-05-02T10:59:04.239Z,61.56
2023-05-02T10:59:59.624Z,61.75
2023-05-02T11:00:55.122Z,61.50
2023-05-02T11:01:50.556Z,60.82
2023-05-02T11:02:46.395Z,60.88
2023-05-02T11:03:41.501Z,61.23
2023-05-02T11:04:36.941Z,62.54
2023-05-02T11:05:32.381Z,63.66
2023-05-02T11:06:27.985Z,63.87
2023-05-02T11:07:23.529Z,64.15
2023-05-02T11:08:21.358Z,64.61
2023-05-02T11:09:14.185Z,64.01
2023-05-02T11:10:09.863Z,63.41
2023-05-02T11:11:05.345Z,63.92
2023-05-02T11:12:00.885Z,63.60
2023-05-02T11:12:56.474Z,63.37
2023-05-02T11:13:51.737Z,63.65
2023-05-02T11:14:47.149Z,63.62
2023-05-02T11:15:42.628Z,64.18
2023-05-02T11:16:38.128Z,64.08
2023-05-02T11:17:33.754Z,63.06
2023-05-02T11:18:29.136Z,62.42
2023-05-02T11:19:24.720Z,60.97
2023-05-02T11:20:20.126Z,60.82
2023-05-02T11:21:15.581Z,61.46
2023-05-02T11:22:10.968Z,60.91
2023-05-02T11:23:06.786Z,60.88
2023-05-02T11:24:02.085Z,59.93
2023-05-02T11:24:57.580Z,60.21
2023-05-02T11:25:53.167Z,59.15
2023-05-02T11:26:48.711Z,60.01
2023-05-02T11:27:44.245Z,60.43
2023-05-02T11:28:39.613Z,61.23
2023-05-02T11:29:35.013Z,61.31
2023-05-02T11:30:30.439Z,59.96
2023-05-02T11:31:26.080Z,60.30
2023-05-02T11:32:21.363Z,59.56
2023-05-02T11:33:16.960Z,57.96
2023-05-02T11:34:12.181Z,58.12
2023-05-02T11:35:07.672Z,57.84
2023-05-02T11:36:03.165Z,56.19
2023-05-02T11:36:58.632Z,55.91
2023-05-02T11:37:54.218Z,55.21
2023-05-02T11:38:49.656Z,56.49
2023-05-02T11:39:45.100Z,55.28
2023-05-02T11:40:40.567Z,56.22
2023-05-02T11:41:35.928Z,56.26
2023-05-02T11:42:31.444Z,56.16
2023-05-02T11:43:28.674Z,55.59
2023-05-02T11:44:22.450Z,55.44
2023-05-02T11:45:17.976Z,55.21
2023-05-02T11:46:13.323Z,54.88
2023-05-02T11:47:08.839Z,54.44
2023-05-02T11:48:04.290Z,53.71
2023-05-02T11:48:59.602Z,55.21
2023-05-02T11:49:55.040Z,54.30
2023-05-02T11:50:50.894Z,53.99
2023-05-02T11:51:46.225Z,54.98
2023-05-02T11:52:41.683Z,55.22
2023-05-02T11:53:37.151Z,56.06
2023-05-02T11:54:32.592Z,57.41